Portada
METAR-TAF:

METAR-TAF

Aeropuertos :

Weno, Weno Island, Micronesia

Aeropuerto Internacional de Chuuk

latitud: 07-28N, longitud: 151-51E, altitud: 3 m

Observación

El informe se hizo hace 1 hora y 3 minutos, a las 00:51 UTC
Viento 7 kt del noreste
Temperatura 31°C
Humedad 75%
Presión 1010 hPa
Visibilidad: 24.1 km
Escasas nubes a una altura de 1400 ft
Nubes dispersas a una altura de 29000 ft

METAR: PTKK 280051Z 04007KT 15SM FEW014 SCT290 31/26 A2983 RMK SLP105 T03060256

Hora: 11:54 (01:54 UTC)

Pronóstico

El informe se hizo hace 2 horas y 28 minutos, a las 23:26 UTC
Pronóstico válido del 28 a las 00 UTC al 28 a las 24 UTC
Viento 11 kt del noreste
Visibilidad: 10 km
Escasas nubes a una altura de 1500 ft
Nubes dispersas a una altura de 5000 ft
chaparrones en las proximidades

TAF: PTKK 272326Z 2800/2824 04011KT P6SM VCSH FEW015 SCT050

Observaciones y pronósticos meteorológicos de más de 4000 aeropuertos (mensajes METAR y TAF).

Los puntos amarillos y rojos representan las estaciones disponibles.

Ponga el ratón en el punto deseado para ver el nombre de la estación.

Haga clic para ver las observaciones y los pronósticos meteorológicos.

Para cambiar el mapa : haga clic en los botones verdes con una cruz de color negro para hacer un zoom, en el botón verde con un guión para alejar o en las flechas verdes para mapas adyacentes.


METAR-TAF: